createdAt,value
2019-05-15T00:01:34.407Z,9.90
2019-05-15T00:04:05.259Z,9.90
2019-05-15T00:06:35.818Z,9.80
2019-05-15T00:09:08.082Z,9.80
2019-05-15T00:11:39.108Z,9.70
2019-05-15T00:14:09.616Z,9.70
2019-05-15T00:16:40.041Z,9.60
2019-05-15T00:24:13.133Z,9.60
2019-05-15T00:26:41.748Z,9.50
2019-05-15T00:29:16.051Z,9.50
2019-05-15T00:31:44.303Z,9.50
2019-05-15T00:34:14.770Z,9.50
2019-05-15T00:36:45.204Z,9.40
2019-05-15T00:39:15.629Z,9.40
2019-05-15T00:41:53.279Z,9.40
2019-05-15T00:44:18.682Z,9.40
2019-05-15T00:46:49.250Z,9.40
2019-05-15T00:49:19.689Z,9.40
2019-05-15T00:51:50.207Z,9.40
2019-05-15T00:54:20.643Z,9.40
2019-05-15T00:56:51.071Z,9.40
2019-05-15T00:59:26.618Z,9.30
2019-05-15T01:01:54.847Z,9.30
2019-05-15T01:04:28.050Z,9.40
2019-05-15T01:06:58.987Z,9.40
2019-05-15T01:09:29.560Z,9.50
2019-05-15T01:11:59.981Z,9.50
2019-05-15T01:14:30.415Z,9.50
2019-05-15T01:17:00.846Z,9.40
2019-05-15T01:19:32.286Z,9.40
2019-05-15T01:22:02.703Z,9.40
2019-05-15T01:24:33.142Z,9.30
2019-05-15T01:27:03.572Z,9.30
2019-05-15T01:29:41.985Z,9.30
2019-05-15T01:32:08.422Z,9.40
2019-05-15T01:34:39.105Z,9.30
2019-05-15T01:37:09.576Z,9.40
2019-05-15T01:39:40.106Z,9.40
2019-05-15T01:42:10.532Z,9.50
2019-05-15T01:44:40.960Z,9.50
2019-05-15T01:47:11.387Z,9.40
2019-05-15T01:49:41.813Z,9.40
2019-05-15T01:52:12.347Z,9.40
2019-05-15T01:54:42.769Z,9.40
2019-05-15T01:57:13.198Z,9.30
2019-05-15T01:59:56.874Z,9.30
2019-05-15T02:02:15.794Z,9.20
2019-05-15T02:04:48.522Z,9.20
2019-05-15T02:07:18.807Z,9.30
2019-05-15T02:09:49.399Z,9.20
2019-05-15T02:12:19.855Z,9.20
2019-05-15T02:14:50.286Z,9.10
2019-05-15T02:17:20.719Z,9.00
2019-05-15T02:19:52.149Z,9.00
2019-05-15T02:22:22.588Z,8.90
2019-05-15T02:24:53.014Z,8.90
2019-05-15T02:27:23.441Z,8.90
2019-05-15T02:30:11.665Z,8.90
2019-05-15T02:32:29.885Z,8.80
2019-05-15T02:34:59.124Z,8.80
2019-05-15T02:37:29.763Z,8.80
2019-05-15T02:40:00.285Z,8.70
2019-05-15T02:42:30.713Z,8.70
2019-05-15T02:45:01.161Z,8.60
2019-05-15T02:47:31.586Z,8.60
2019-05-15T02:50:02.198Z,8.50
2019-05-15T02:52:33.725Z,8.50
2019-05-15T02:55:04.180Z,8.50
2019-05-15T02:57:34.605Z,8.40
2019-05-15T03:00:05.800Z,8.30
2019-05-15T03:02:36.283Z,8.30
2019-05-15T03:05:09.287Z,8.20
2019-05-15T03:07:40.411Z,8.20
2019-05-15T03:10:11.453Z,8.20
2019-05-15T03:12:42.074Z,8.10
2019-05-15T03:15:12.716Z,8.10
2019-05-15T03:17:43.143Z,8.00
2019-05-15T03:20:13.574Z,8.00
2019-05-15T03:22:43.998Z,8.00
2019-05-15T03:25:14.847Z,8.00
2019-05-15T03:27:45.260Z,7.90
2019-05-15T03:30:21.063Z,7.90
2019-05-15T03:32:55.775Z,7.90
2019-05-15T03:35:22.581Z,7.80
2019-05-15T03:37:52.499Z,7.80
2019-05-15T03:40:22.983Z,7.80
2019-05-15T03:42:53.761Z,7.70
2019-05-15T03:45:24.206Z,7.70
2019-05-15T03:47:54.820Z,7.70
2019-05-15T03:50:28.299Z,7.60
2019-05-15T03:52:58.826Z,7.60
2019-05-15T03:55:29.753Z,7.60
2019-05-15T03:58:00.215Z,7.60
2019-05-15T04:00:31.667Z,7.70
2019-05-15T04:03:02.082Z,7.80
2019-05-15T04:05:32.605Z,7.90
2019-05-15T04:08:03.059Z,8.00
2019-05-15T04:10:33.624Z,8.00
2019-05-15T04:13:04.111Z,8.00
2019-05-15T04:15:34.535Z,7.90
2019-05-15T04:18:04.964Z,7.90
2019-05-15T04:20:35.387Z,7.90
2019-05-15T04:23:09.795Z,7.90
2019-05-15T04:25:39.476Z,7.90
2019-05-15T04:28:11.690Z,7.90
2019-05-15T04:30:42.122Z,7.90
2019-05-15T04:33:12.548Z,7.90
2019-05-15T04:35:42.968Z,7.80
2019-05-15T04:38:13.395Z,7.90
2019-05-15T04:40:43.830Z,7.80
2019-05-15T04:43:14.290Z,7.80
2019-05-15T04:45:44.784Z,7.80
2019-05-15T04:48:15.203Z,7.80
2019-05-15T04:50:45.635Z,7.80
2019-05-15T04:53:19.060Z,7.80
2019-05-15T04:55:49.086Z,7.90
2019-05-15T04:58:21.116Z,7.90
2019-05-15T05:00:59.544Z,8.00
2019-05-15T05:03:29.243Z,8.00
2019-05-15T05:06:00.738Z,8.20
2019-05-15T05:08:31.419Z,8.20
2019-05-15T05:11:02.894Z,8.30
2019-05-15T05:13:33.367Z,8.40
2019-05-15T05:16:03.828Z,8.50
2019-05-15T05:18:34.358Z,8.60
2019-05-15T05:21:04.794Z,8.70
2019-05-15T05:23:37.349Z,8.90
2019-05-15T05:26:10.876Z,9.00
2019-05-15T05:28:39.548Z,9.10
2019-05-15T05:31:14.027Z,9.10
2019-05-15T05:33:43.170Z,9.20
2019-05-15T05:36:14.105Z,9.20
2019-05-15T05:38:44.534Z,9.30
2019-05-15T05:41:15.999Z,9.40
2019-05-15T05:43:48.752Z,9.60
2019-05-15T05:46:19.339Z,9.80
2019-05-15T05:48:49.829Z,9.90
2019-05-15T05:51:21.279Z,10.00
2019-05-15T05:53:51.701Z,10.10
2019-05-15T05:56:24.895Z,10.30
2019-05-15T05:58:55.528Z,10.40
2019-05-15T06:01:28.229Z,10.60
2019-05-15T06:03:58.943Z,10.60
2019-05-15T06:06:29.676Z,10.70
2019-05-15T06:09:00.213Z,10.90
2019-05-15T06:11:30.742Z,11.00
2019-05-15T06:14:01.158Z,11.20
2019-05-15T06:16:31.652Z,11.30
2019-05-15T06:19:02.115Z,11.50
2019-05-15T06:21:33.679Z,11.60
2019-05-15T06:24:05.729Z,11.50
2019-05-15T06:26:38.570Z,11.50
2019-05-15T06:29:09.158Z,11.60
2019-05-15T06:31:39.579Z,11.70
2019-05-15T06:34:10.008Z,11.80
2019-05-15T06:36:40.433Z,11.90
2019-05-15T06:39:10.956Z,12.00
2019-05-15T06:41:41.400Z,12.10
2019-05-15T06:44:11.816Z,12.20
2019-05-15T06:46:42.238Z,12.30
2019-05-15T06:49:12.715Z,12.40
2019-05-15T06:51:43.406Z,12.50
2019-05-15T06:54:13.832Z,12.40
2019-05-15T06:56:44.254Z,12.50
2019-05-15T06:59:14.783Z,12.70
2019-05-15T07:01:48.156Z,12.90
2019-05-15T07:06:49.104Z,13.20
2019-05-15T07:09:19.667Z,13.40
2019-05-15T07:11:50.100Z,13.40
2019-05-15T07:14:20.519Z,13.30
2019-05-15T07:16:50.948Z,13.20
2019-05-15T07:19:21.423Z,13.30
2019-05-15T07:21:57.942Z,13.50
2019-05-15T07:24:28.909Z,13.60
2019-05-15T07:26:59.516Z,13.70
2019-05-15T07:29:30.358Z,14.20
2019-05-15T07:32:00.785Z,14.80
2019-05-15T07:34:31.207Z,15.50
2019-05-15T07:37:01.654Z,15.70
2019-05-15T07:39:33.144Z,15.80
2019-05-15T07:42:03.614Z,16.40
2019-05-15T07:44:34.040Z,17.00
2019-05-15T07:47:04.469Z,17.40
2019-05-15T07:49:34.907Z,17.60
2019-05-15T07:54:35.032Z,18.10
2019-05-15T07:57:05.458Z,19.40
2019-05-15T07:59:38.682Z,19.70
2019-05-15T08:02:10.603Z,20.00
2019-05-15T08:04:41.043Z,20.60
2019-05-15T08:07:11.572Z,21.40
2019-05-15T08:09:43.191Z,21.30
2019-05-15T08:12:13.719Z,21.10
2019-05-15T08:14:47.257Z,20.80
2019-05-15T08:17:19.046Z,21.20
2019-05-15T08:19:48.757Z,21.50
2019-05-15T08:22:19.298Z,22.00
2019-05-15T08:24:49.780Z,23.00
2019-05-15T08:27:23.312Z,22.70
2019-05-15T08:29:53.297Z,22.50
2019-05-15T08:32:23.725Z,22.50
2019-05-15T08:34:54.150Z,23.20
2019-05-15T08:37:24.577Z,24.40
2019-05-15T08:39:55.010Z,24.10
2019-05-15T08:42:27.992Z,24.50
2019-05-15T08:44:58.404Z,24.00
2019-05-15T08:47:29.743Z,24.00
2019-05-15T08:50:00.308Z,23.80
2019-05-15T08:52:30.729Z,23.50
2019-05-15T08:55:01.203Z,23.70
2019-05-15T08:57:31.883Z,24.40
2019-05-15T09:00:02.316Z,24.60
2019-05-15T09:02:32.844Z,24.60
2019-05-15T09:05:03.566Z,25.10
2019-05-15T09:07:34.094Z,25.10
2019-05-15T09:10:04.691Z,25.60
2019-05-15T09:12:35.163Z,27.00
2019-05-15T09:15:07.677Z,27.50
2019-05-15T09:17:39.807Z,26.80
2019-05-15T09:20:11.431Z,27.00
2019-05-15T09:22:41.901Z,26.50
2019-05-15T09:25:12.880Z,25.80
2019-05-15T09:27:43.362Z,25.70
2019-05-15T09:30:15.218Z,25.00
2019-05-15T09:32:48.153Z,24.80
2019-05-15T09:35:21.139Z,24.90
2019-05-15T09:37:51.821Z,25.00
2019-05-15T09:40:22.342Z,25.10
2019-05-15T09:42:52.779Z,24.80
2019-05-15T09:45:23.480Z,24.90
2019-05-15T09:47:53.947Z,25.40
2019-05-15T09:50:24.383Z,26.10
2019-05-15T09:52:54.795Z,26.10
2019-05-15T09:55:25.224Z,26.50
2019-05-15T09:57:55.700Z,27.10
2019-05-15T10:00:29.070Z,27.30
2019-05-15T10:02:59.134Z,27.80
2019-05-15T10:05:29.593Z,28.00
2019-05-15T10:08:00.335Z,28.60
2019-05-15T10:10:31.367Z,28.70
2019-05-15T10:13:40.758Z,30.00
2019-05-15T10:16:11.236Z,31.10
2019-05-15T10:18:41.664Z,31.50
2019-05-15T10:21:13.116Z,30.60
2019-05-15T10:23:43.547Z,29.50
2019-05-15T10:26:14.543Z,29.50
2019-05-15T10:28:45.272Z,29.50
2019-05-15T10:31:15.742Z,30.00
2019-05-15T10:33:49.147Z,29.90
2019-05-15T10:36:21.216Z,29.00
2019-05-15T10:38:52.871Z,29.00
2019-05-15T10:41:23.390Z,29.50
2019-05-15T10:43:56.558Z,29.30
2019-05-15T10:46:27.218Z,29.70
2019-05-15T10:48:58.592Z,30.00
2019-05-15T10:51:29.198Z,31.30
2019-05-15T10:53:59.665Z,32.00
2019-05-15T10:56:30.149Z,32.60
2019-05-15T10:59:01.779Z,33.40
2019-05-15T11:01:33.607Z,33.80
2019-05-15T11:04:04.276Z,34.30
2019-05-15T11:06:34.731Z,34.80
2019-05-15T11:09:08.237Z,35.70
2019-05-15T11:11:38.245Z,35.90
2019-05-15T11:14:09.263Z,34.90
2019-05-15T11:16:39.812Z,35.00
2019-05-15T11:19:10.239Z,35.40
2019-05-15T11:21:43.407Z,35.80
2019-05-15T11:24:12.722Z,37.20
2019-05-15T11:26:43.158Z,36.90
2019-05-15T11:29:13.586Z,36.60
2019-05-15T11:31:44.078Z,37.10
2019-05-15T11:34:14.542Z,37.10
2019-05-15T11:36:44.968Z,37.90
2019-05-15T11:39:18.062Z,36.80
2019-05-15T11:41:49.216Z,36.10
2019-05-15T11:44:19.722Z,35.80
2019-05-15T11:46:50.159Z,36.10
2019-05-15T11:49:20.586Z,36.30
2019-05-15T11:51:51.012Z,37.10
2019-05-15T11:54:22.566Z,37.60
2019-05-15T11:56:52.983Z,37.50
2019-05-15T11:59:23.429Z,37.90
2019-05-15T12:01:53.846Z,37.20
2019-05-15T12:04:30.243Z,34.40
2019-05-15T12:06:59.626Z,34.20
2019-05-15T12:09:28.926Z,33.80
2019-05-15T12:11:59.489Z,33.90
2019-05-15T12:14:29.980Z,33.40
2019-05-15T12:17:10.381Z,32.10
2019-05-15T12:19:33.901Z,32.70
2019-05-15T12:22:04.328Z,32.80
2019-05-15T12:24:36.782Z,31.50
2019-05-15T12:27:15.317Z,30.60
2019-05-15T12:29:40.149Z,29.70
2019-05-15T12:32:25.283Z,28.60
2019-05-15T12:34:42.939Z,27.80
2019-05-15T12:37:13.750Z,27.40
2019-05-15T12:39:44.179Z,27.40
2019-05-15T13:00:00.202Z,31.00
2019-05-15T13:02:30.613Z,31.60
2019-05-15T13:05:01.247Z,31.40
2019-05-15T13:07:31.719Z,31.20
2019-05-15T13:10:02.286Z,30.40
2019-05-15T13:12:32.775Z,28.10
2019-05-15T13:15:03.266Z,25.70
2019-05-15T13:17:33.690Z,24.60
2019-05-15T13:20:04.321Z,24.00
2019-05-15T13:22:36.417Z,24.20
2019-05-15T13:25:08.524Z,26.00
2019-05-15T13:27:39.184Z,28.20
2019-05-15T13:30:09.920Z,29.00
2019-05-15T13:32:41.157Z,29.50
2019-05-15T13:35:11.906Z,29.80
2019-05-15T13:37:42.383Z,29.60
2019-05-15T13:40:13.267Z,29.90
2019-05-15T13:42:43.698Z,30.50
2019-05-15T13:45:14.228Z,31.10
2019-05-15T13:47:44.650Z,31.50
2019-05-15T13:50:15.076Z,32.70
2019-05-15T13:52:45.502Z,32.30
2019-05-15T13:55:24.604Z,32.00
2019-05-15T13:57:48.692Z,32.40
2019-05-15T14:00:19.650Z,32.50
2019-05-15T14:02:50.078Z,32.30
2019-05-15T14:05:20.505Z,31.90
2019-05-15T14:07:53.567Z,32.00
2019-05-15T14:10:23.149Z,31.70
2019-05-15T14:12:53.699Z,31.70
2019-05-15T14:15:24.254Z,31.50
2019-05-15T14:17:54.687Z,31.50
2019-05-15T14:20:25.190Z,31.80
2019-05-15T14:22:55.644Z,32.30
2019-05-15T14:25:26.279Z,33.60
2019-05-15T14:27:59.128Z,34.10
2019-05-15T14:30:29.779Z,33.40
2019-05-15T14:33:00.579Z,33.00
2019-05-15T14:35:31.364Z,33.20
2019-05-15T14:38:06.541Z,33.40
2019-05-15T14:40:34.217Z,33.50
2019-05-15T14:43:04.692Z,33.90
2019-05-15T14:45:35.427Z,34.20
2019-05-15T14:48:05.855Z,33.60
2019-05-15T14:50:38.942Z,33.50
2019-05-15T14:53:09.771Z,33.40
2019-05-15T14:55:43.841Z,33.20
2019-05-15T14:58:12.475Z,32.90
2019-05-15T15:00:42.903Z,32.90
2019-05-15T15:03:13.638Z,33.60
2019-05-15T15:05:44.065Z,33.60
2019-05-15T15:08:21.615Z,33.90
2019-05-15T15:10:47.043Z,33.20
2019-05-15T15:13:18.259Z,33.50
2019-05-15T15:15:49.038Z,32.90
2019-05-15T15:18:19.477Z,32.70
2019-05-15T15:20:50.924Z,33.20
2019-05-15T15:23:21.352Z,33.10
2019-05-15T15:25:51.780Z,32.70
2019-05-15T15:28:22.208Z,31.70
2019-05-15T15:30:52.638Z,31.50
2019-05-15T15:33:23.067Z,31.70
2019-05-15T15:35:53.490Z,30.70
2019-05-15T15:38:38.040Z,29.40
2019-05-15T15:41:00.076Z,28.10
2019-05-15T15:43:29.218Z,27.20
2019-05-15T15:45:59.707Z,26.30
2019-05-15T15:48:30.120Z,25.40
2019-05-15T15:51:00.557Z,24.30
2019-05-15T15:53:30.983Z,23.40
2019-05-15T15:56:01.712Z,22.50
2019-05-15T15:58:32.143Z,22.00
2019-05-15T16:01:02.572Z,21.60
2019-05-15T16:03:32.987Z,21.30
2019-05-15T16:06:03.534Z,21.10
2019-05-15T16:08:34.122Z,20.90
2019-05-15T16:11:04.957Z,20.80
2019-05-15T16:13:35.468Z,20.60
2019-05-15T16:16:08.402Z,20.40
2019-05-15T16:18:38.503Z,20.00
2019-05-15T16:21:08.955Z,19.60
2019-05-15T16:23:39.587Z,19.30
2019-05-15T16:26:10.015Z,19.00
2019-05-15T16:28:40.443Z,18.80
2019-05-15T16:31:12.318Z,18.70
2019-05-15T16:33:48.566Z,18.60
2019-05-15T16:36:19.300Z,18.50
2019-05-15T16:39:03.702Z,18.60
2019-05-15T16:41:22.816Z,18.60
2019-05-15T16:43:53.245Z,18.60
2019-05-15T16:46:24.421Z,18.60
2019-05-15T16:48:58.356Z,18.30
2019-05-15T16:51:32.238Z,18.30
2019-05-15T16:54:01.403Z,18.20
2019-05-15T16:56:31.829Z,18.10
2019-05-15T16:59:02.275Z,18.00
2019-05-15T17:01:32.681Z,17.90
2019-05-15T17:04:03.202Z,17.90
2019-05-15T17:06:33.638Z,17.80
2019-05-15T17:09:17.588Z,17.70
2019-05-15T17:11:38.405Z,17.60
2019-05-15T17:14:08.813Z,17.50
2019-05-15T17:16:39.588Z,17.40
2019-05-15T17:19:10.075Z,17.20
2019-05-15T17:21:40.507Z,17.10
2019-05-15T17:24:10.936Z,17.00
2019-05-15T17:26:41.355Z,17.00
2019-05-15T17:29:11.783Z,16.80
2019-05-15T17:31:43.438Z,16.60
2019-05-15T17:34:13.855Z,16.50
2019-05-15T17:36:44.292Z,16.40
2019-05-15T17:39:14.723Z,16.40
2019-05-15T17:41:45.146Z,16.40
2019-05-15T17:44:15.574Z,16.30
2019-05-15T17:46:48.758Z,16.30
2019-05-15T17:49:18.313Z,16.30
2019-05-15T17:51:48.949Z,16.20
2019-05-15T17:54:19.430Z,16.20
2019-05-15T17:56:49.857Z,16.10
2019-05-15T17:59:20.288Z,16.10
2019-05-15T18:04:20.422Z,16.00
2019-05-15T18:06:50.849Z,15.80
2019-05-15T18:09:21.378Z,15.70
2019-05-15T18:11:51.919Z,15.60
2019-05-15T18:14:22.469Z,15.60
2019-05-15T18:16:52.965Z,15.50
2019-05-15T18:19:23.442Z,15.40
2019-05-15T18:21:53.924Z,15.30
2019-05-15T18:24:24.349Z,15.30
2019-05-15T18:26:54.783Z,15.30
2019-05-15T18:29:25.501Z,15.30
2019-05-15T18:31:55.938Z,15.20
2019-05-15T18:34:28.582Z,15.10
2019-05-15T18:36:58.430Z,15.00
2019-05-15T18:39:30.187Z,14.90
2019-05-15T18:42:00.621Z,14.90
2019-05-15T18:44:31.371Z,14.90
2019-05-15T18:47:01.780Z,14.70
2019-05-15T18:49:33.232Z,14.60
2019-05-15T18:52:03.804Z,14.50
2019-05-15T18:54:34.285Z,14.50
2019-05-15T18:57:04.713Z,14.40
2019-05-15T18:59:35.141Z,14.30
2019-05-15T19:02:07.876Z,14.20
2019-05-15T19:04:38.303Z,14.10
2019-05-15T19:07:09.022Z,14.10
2019-05-15T19:09:39.813Z,14.00
2019-05-15T19:12:10.862Z,13.90
2019-05-15T19:14:41.506Z,13.90
2019-05-15T19:17:12.089Z,13.80
2019-05-15T19:19:42.557Z,13.70
2019-05-15T19:22:13.039Z,13.70
2019-05-15T19:24:43.504Z,13.60
2019-05-15T19:27:14.240Z,13.50
2019-05-15T19:29:44.666Z,13.50
2019-05-15T19:32:15.106Z,13.40
2019-05-15T19:34:45.649Z,13.40
2019-05-15T19:37:18.179Z,13.30
2019-05-15T19:39:48.461Z,13.20
2019-05-15T19:42:19.183Z,13.20
2019-05-15T19:44:49.695Z,13.10
2019-05-15T19:47:20.337Z,13.10
2019-05-15T19:49:50.979Z,13.10
2019-05-15T19:52:21.558Z,13.00
2019-05-15T19:54:52.089Z,13.00
2019-05-15T19:57:23.253Z,13.00
2019-05-15T19:59:54.874Z,12.90
2019-05-15T20:02:28.426Z,12.80
2019-05-15T20:04:58.368Z,12.80
2019-05-15T20:07:29.106Z,12.70
2019-05-15T20:09:59.712Z,12.70
2019-05-15T20:12:30.243Z,12.60
2019-05-15T20:15:01.231Z,12.50
2019-05-15T20:17:31.872Z,12.50
2019-05-15T20:20:02.772Z,12.50
2019-05-15T20:22:36.562Z,12.40
2019-05-15T20:25:08.264Z,12.30
2019-05-15T20:27:39.049Z,12.30
2019-05-15T20:30:10.172Z,12.40
2019-05-15T20:32:40.596Z,12.40
2019-05-15T20:35:11.219Z,12.50
2019-05-15T20:37:42.438Z,12.60
2019-05-15T20:40:13.713Z,12.60
2019-05-15T20:42:44.290Z,12.60
2019-05-15T20:45:14.902Z,12.60
2019-05-15T20:47:45.973Z,12.70
2019-05-15T20:50:19.122Z,12.70
2019-05-15T20:52:49.217Z,12.60
2019-05-15T20:55:19.918Z,12.60
2019-05-15T20:57:50.597Z,12.50
2019-05-15T21:00:21.567Z,12.40
2019-05-15T21:02:52.012Z,12.40
2019-05-15T21:05:22.617Z,12.30
2019-05-15T21:07:53.151Z,12.30
2019-05-15T21:10:23.941Z,12.10
2019-05-15T21:12:54.418Z,12.10
2019-05-15T21:15:25.007Z,12.00
2019-05-15T21:17:59.424Z,12.00
2019-05-15T21:20:28.785Z,12.00
2019-05-15T21:23:01.438Z,11.90
2019-05-15T21:25:31.567Z,11.90
2019-05-15T21:28:02.148Z,11.90
2019-05-15T21:30:33.132Z,11.80
2019-05-15T21:33:03.751Z,11.80
2019-05-15T21:35:34.360Z,11.80
2019-05-15T21:38:04.831Z,11.70
2019-05-15T21:40:38.457Z,11.70
2019-05-15T21:43:08.893Z,11.70
2019-05-15T21:45:39.894Z,11.70
2019-05-15T21:48:10.693Z,11.60
2019-05-15T21:50:41.275Z,11.60
2019-05-15T21:53:11.794Z,11.60
2019-05-15T21:55:42.315Z,11.50
2019-05-15T21:58:12.902Z,11.50
2019-05-15T22:00:48.382Z,11.50
2019-05-15T22:03:19.820Z,11.40
2019-05-15T22:05:50.769Z,11.40
2019-05-15T22:08:21.314Z,11.30
2019-05-15T22:10:52.646Z,11.30
2019-05-15T22:13:28.596Z,11.30
2019-05-15T22:15:58.748Z,11.30
2019-05-15T22:18:28.538Z,11.20
2019-05-15T22:20:59.370Z,11.20
2019-05-15T22:23:29.786Z,11.10
2019-05-15T22:26:00.214Z,11.10
2019-05-15T22:28:30.795Z,11.10
2019-05-15T22:31:01.383Z,11.10
2019-05-15T22:33:31.987Z,11.00
2019-05-15T22:36:02.547Z,11.00
2019-05-15T22:38:32.982Z,11.00
2019-05-15T22:41:03.399Z,10.90
2019-05-15T22:43:33.919Z,10.90
2019-05-15T22:46:04.357Z,10.90
2019-05-15T22:48:34.783Z,10.90
2019-05-15T22:51:05.416Z,10.90
2019-05-15T22:53:38.161Z,10.90
2019-05-15T22:56:09.362Z,10.90
2019-05-15T22:58:39.872Z,10.90
2019-05-15T23:01:11.575Z,10.90
2019-05-15T23:03:42.055Z,10.90
2019-05-15T23:06:12.484Z,11.00
2019-05-15T23:08:42.910Z,10.90
2019-05-15T23:11:13.335Z,11.00
2019-05-15T23:13:43.763Z,11.00
2019-05-15T23:16:14.498Z,11.00
2019-05-15T23:18:44.996Z,11.00
2019-05-15T23:21:15.454Z,11.10
2019-05-15T23:23:45.881Z,11.10
2019-05-15T23:26:16.305Z,11.10
2019-05-15T23:28:48.088Z,11.10
2019-05-15T23:31:18.987Z,11.10
2019-05-15T23:33:49.536Z,11.10
2019-05-15T23:36:20.166Z,11.00
2019-05-15T23:38:50.592Z,11.00
2019-05-15T23:41:21.020Z,10.90
2019-05-15T23:43:51.446Z,10.90
2019-05-15T23:46:21.873Z,10.90
2019-05-15T23:48:52.303Z,10.90
2019-05-15T23:51:23.960Z,11.00
2019-05-15T23:53:54.593Z,11.00
2019-05-15T23:56:25.121Z,10.90
2019-05-15T23:58:55.535Z,10.90
